Terminal Aerodrome Forecast
Issued by NWS

Home | Current Version | Previous Version | Text Only | Print | Product List | Glossary On
Versions: 1 2 3 4 5 6 7 8 9 10 11 12 13 14 15 16 17 18 19 20 21 22 23 24 25 26 27 28 29 30 31 32 33 34 35 36 37 38 39 40 41
000
FTUS43 KGRB 061723
TAFRHI
TAF
KRHI 061723Z 0618/0718 16008KT P6SM OVC005
      TEMPO 0618/0620 3SM -SHRA BR SCT005 OVC040
     FM062000 VRB03KT 5SM -SHRA BR SCT005 OVC012
      TEMPO 0620/0623 2SM -SHRA BR OVC005
     FM062300 36008KT 5SM SHRA BR BKN004 OVC008
     FM070200 35007KT 5SM BR VCSH OVC008
     FM070500 33006KT 4SM BR OVC008
     FM071400 36008KT P6SM SCT020=

USA.gov is the U.S. government's official web portal to all federal, state and local government web resources and services.